e-Mail: Password: Lost your password? Click here. - Register a new user

c h a v e z j u a r e z . c o m

Weather - Tiempo - Wetter - Temps

METAR DATA MMMX (Mexico City)

Mexico City / Licenci, Mexico (MMMX) 19-26N 099-06W
Jun 22, 2017 - 08:44 PM EDT / 2017.06.23 0044 UTC
Wind: from the E (080 degrees) at 12 MPH (10 KT):0
Visibility: 10 mile(s):0
Sky conditions: mostly cloudy
Weather: Cumulonimbus clouds observed
Temperature: 75 F (24 C)
Dew Point: 51 F (11 C)
Relative Humidity: 43%
Pressure (altimeter): 30.16 in. Hg (1021 hPa)
ob: MMMX 230044Z 08010KT 10SM SCT020 SCT080 BKN200 24/11 A3016 NOSIG RMK 8/462 HZY DSNT CB ESE
cycle: 0

Mexico City

St. Prex




Current weather alarms for Switzerland


www.wetteralarm.ch